sensor_id;sensor_type;location;lat;lon;timestamp;pressure;altitude;pressure_sealevel;temperature;humidity
64189;BME280;50493;50.970;10.082;2022-12-10T00:01:32;98293.38;;;1.76;67.12
64189;BME280;50493;50.970;10.082;2022-12-10T00:03:59;98291.72;;;1.60;67.53
64189;BME280;50493;50.970;10.082;2022-12-10T00:06:28;98292.53;;;1.69;67.46
64189;BME280;50493;50.970;10.082;2022-12-10T00:08:54;98290.81;;;1.73;67.00
64189;BME280;50493;50.970;10.082;2022-12-10T00:11:20;98296.84;;;1.74;67.24
64189;BME280;50493;50.970;10.082;2022-12-10T00:13:48;98289.13;;;1.61;68.16
64189;BME280;50493;50.970;10.082;2022-12-10T00:16:16;98289.13;;;1.58;67.64
64189;BME280;50493;50.970;10.082;2022-12-10T00:18:42;98299.44;;;1.58;67.76
64189;BME280;50493;50.970;10.082;2022-12-10T00:21:10;98296.84;;;1.60;67.64
64189;BME280;50493;50.970;10.082;2022-12-10T00:23:37;98302.91;;;1.51;67.98
64189;BME280;50493;50.970;10.082;2022-12-10T00:26:03;98294.28;;;1.58;68.13
64189;BME280;50493;50.970;10.082;2022-12-10T00:28:29;98295.06;;;1.79;67.53
64189;BME280;50493;50.970;10.082;2022-12-10T00:30:55;98289.88;;;1.91;66.49
64189;BME280;50493;50.970;10.082;2022-12-10T00:33:26;98297.75;;;1.49;66.86
64189;BME280;50493;50.970;10.082;2022-12-10T00:35:52;98293.41;;;1.65;67.62
64189;BME280;50493;50.970;10.082;2022-12-10T00:38:17;98301.97;;;1.77;67.23
64189;BME280;50493;50.970;10.082;2022-12-10T00:40:42;98301.09;;;1.81;67.17
64189;BME280;50493;50.970;10.082;2022-12-10T00:43:08;98297.63;;;1.86;66.19
64189;BME280;50493;50.970;10.082;2022-12-10T00:45:33;98299.34;;;1.83;67.60
64189;BME280;50493;50.970;10.082;2022-12-10T00:48:00;98295.91;;;1.87;66.27
64189;BME280;50493;50.970;10.082;2022-12-10T00:50:25;98298.53;;;1.81;67.47
64189;BME280;50493;50.970;10.082;2022-12-10T00:52:51;98295.16;;;1.62;68.12
64189;BME280;50493;50.970;10.082;2022-12-10T00:55:16;98299.41;;;1.67;67.67
64189;BME280;50493;50.970;10.082;2022-12-10T00:57:42;98297.72;;;1.60;68.25
64189;BME280;50493;50.970;10.082;2022-12-10T01:00:08;98298.50;;;1.76;67.44
64189;BME280;50493;50.970;10.082;2022-12-10T01:02:34;98295.13;;;1.68;67.51
64189;BME280;50493;50.970;10.082;2022-12-10T01:05:00;98302.81;;;1.76;67.60
64189;BME280;50493;50.970;10.082;2022-12-10T01:07:26;98300.25;;;1.74;67.64
64189;BME280;50493;50.970;10.082;2022-12-10T01:09:51;98304.56;;;1.61;68.08
64189;BME280;50493;50.970;10.082;2022-12-10T01:12:17;98312.28;;;1.70;66.89
64189;BME280;50493;50.970;10.082;2022-12-10T01:14:42;98310.59;;;1.71;67.60
64189;BME280;50493;50.970;10.082;2022-12-10T01:17:07;98313.16;;;1.72;66.94
64189;BME280;50493;50.970;10.082;2022-12-10T01:19:33;98326.13;;;1.00;69.64
64189;BME280;50493;50.970;10.082;2022-12-10T01:22:00;98314.94;;;1.52;68.94
64189;BME280;50493;50.970;10.082;2022-12-10T01:24:27;98318.41;;;1.11;68.76
64189;BME280;50493;50.970;10.082;2022-12-10T01:26:53;98320.94;;;1.43;68.45
64189;BME280;50493;50.970;10.082;2022-12-10T01:29:20;98325.19;;;1.61;67.99
64189;BME280;50493;50.970;10.082;2022-12-10T01:31:45;98320.09;;;1.39;67.70
64189;BME280;50493;50.970;10.082;2022-12-10T01:34:15;98332.16;;;1.13;68.69
64189;BME280;50493;50.970;10.082;2022-12-10T01:36:41;98328.69;;;1.28;69.32
64189;BME280;50493;50.970;10.082;2022-12-10T01:39:10;98330.38;;;1.52;69.15
64189;BME280;50493;50.970;10.082;2022-12-10T01:41:40;98338.94;;;1.60;68.35
64189;BME280;50493;50.970;10.082;2022-12-10T01:47:04;98337.25;;;1.37;69.16
64189;BME280;50493;50.970;10.082;2022-12-10T01:49:33;98340.69;;;1.55;68.84
64189;BME280;50493;50.970;10.082;2022-12-10T01:51:59;98341.53;;;1.43;69.01
64189;BME280;50493;50.970;10.082;2022-12-10T01:54:27;98338.84;;;1.88;66.46
64189;BME280;50493;50.970;10.082;2022-12-10T01:56:58;98345.78;;;1.77;66.52
64189;BME280;50493;50.970;10.082;2022-12-10T01:59:24;98341.50;;;1.66;68.19
64189;BME280;50493;50.970;10.082;2022-12-10T02:01:57;98344.06;;;1.76;68.11
64189;BME280;50493;50.970;10.082;2022-12-10T02:04:28;98338.00;;;1.91;66.20
64189;BME280;50493;50.970;10.082;2022-12-10T02:07:01;98340.56;;;1.92;67.51
64189;BME280;50493;50.970;10.082;2022-12-10T02:09:35;98350.94;;;1.66;67.42
64189;BME280;50493;50.970;10.082;2022-12-10T02:12:10;98343.22;;;1.66;67.65
64189;BME280;50493;50.970;10.082;2022-12-10T02:14:43;98349.22;;;1.72;67.38
64189;BME280;50493;50.970;10.082;2022-12-10T02:17:15;98344.06;;;1.69;67.44
64189;BME280;50493;50.970;10.082;2022-12-10T02:19:56;98344.06;;;1.69;65.81
64189;BME280;50493;50.970;10.082;2022-12-10T02:22:26;98340.69;;;1.55;68.92
64189;BME280;50493;50.970;10.082;2022-12-10T02:24:56;98344.94;;;1.62;69.35
64189;BME280;50493;50.970;10.082;2022-12-10T02:27:26;98334.56;;;1.85;69.14
64189;BME280;50493;50.970;10.082;2022-12-10T02:29:55;98338.88;;;1.85;67.42
64189;BME280;50493;50.970;10.082;2022-12-10T02:32:25;98337.16;;;1.90;66.58
64189;BME280;50493;50.970;10.082;2022-12-10T02:34:57;98342.31;;;1.81;66.71
64189;BME280;50493;50.970;10.082;2022-12-10T02:37:27;98345.75;;;1.86;67.29
64189;BME280;50493;50.970;10.082;2022-12-10T02:39:56;98346.66;;;1.55;67.89
64189;BME280;50493;50.970;10.082;2022-12-10T02:42:25;98338.09;;;1.55;66.65
64189;BME280;50493;50.970;10.082;2022-12-10T02:44:56;98332.97;;;1.43;68.23
64189;BME280;50493;50.970;10.082;2022-12-10T02:47:22;98335.53;;;1.46;68.81
64189;BME280;50493;50.970;10.082;2022-12-10T02:49:51;98330.41;;;1.33;69.03
64189;BME280;50493;50.970;10.082;2022-12-10T02:52:20;98330.38;;;1.55;69.04
64189;BME280;50493;50.970;10.082;2022-12-10T02:54:47;98333.81;;;1.45;67.36
64189;BME280;50493;50.970;10.082;2022-12-10T02:57:27;98334.69;;;1.47;68.34
64189;BME280;50493;50.970;10.082;2022-12-10T03:00:11;98338.97;;;1.35;70.50
64189;BME280;50493;50.970;10.082;2022-12-10T03:02:51;98332.94;;;1.49;69.08
64189;BME280;50493;50.970;10.082;2022-12-10T03:05:22;98330.38;;;1.39;68.51
64189;BME280;50493;50.970;10.082;2022-12-10T03:07:55;98332.97;;;1.38;68.11
64189;BME280;50493;50.970;10.082;2022-12-10T03:10:27;98338.09;;;1.63;68.63
64189;BME280;50493;50.970;10.082;2022-12-10T03:12:58;98338.91;;;1.69;67.89
64189;BME280;50493;50.970;10.082;2022-12-10T03:15:26;98344.09;;;1.48;68.22
64189;BME280;50493;50.970;10.082;2022-12-10T03:17:53;98341.53;;;1.54;66.76
64189;BME280;50493;50.970;10.082;2022-12-10T03:20:22;98336.41;;;1.38;68.57
64189;BME280;50493;50.970;10.082;2022-12-10T03:22:49;98336.38;;;1.51;69.41
64189;BME280;50493;50.970;10.082;2022-12-10T03:25:19;98332.13;;;1.34;68.48
64189;BME280;50493;50.970;10.082;2022-12-10T03:27:45;98326.94;;;1.56;66.83
64189;BME280;50493;50.970;10.082;2022-12-10T03:30:15;98333.78;;;1.48;68.45
64189;BME280;50493;50.970;10.082;2022-12-10T03:32:43;98337.25;;;1.47;68.56
64189;BME280;50493;50.970;10.082;2022-12-10T03:35:10;98333.78;;;1.48;67.26
64189;BME280;50493;50.970;10.082;2022-12-10T03:37:36;98327.81;;;1.38;66.73
64189;BME280;50493;50.970;10.082;2022-12-10T03:40:03;98336.44;;;1.20;67.61
64189;BME280;50493;50.970;10.082;2022-12-10T03:42:29;98342.44;;;1.16;69.23
64189;BME280;50493;50.970;10.082;2022-12-10T03:44:55;98347.59;;;0.94;67.79
64189;BME280;50493;50.970;10.082;2022-12-10T03:47:21;98345.00;;;0.97;70.41
64189;BME280;50493;50.970;10.082;2022-12-10T03:49:48;98351.84;;;1.15;70.29
64189;BME280;50493;50.970;10.082;2022-12-10T03:52:14;98345.88;;;1.21;68.85
64189;BME280;50493;50.970;10.082;2022-12-10T03:54:39;98348.41;;;1.18;66.81
64189;BME280;50493;50.970;10.082;2022-12-10T03:57:05;98348.44;;;1.10;69.83
64189;BME280;50493;50.970;10.082;2022-12-10T03:59:30;98348.44;;;1.32;69.82
64189;BME280;50493;50.970;10.082;2022-12-10T04:01:56;98337.25;;;1.47;67.73
64189;BME280;50493;50.970;10.082;2022-12-10T04:04:21;98337.25;;;1.50;68.22
64189;BME280;50493;50.970;10.082;2022-12-10T04:06:48;98332.13;;;1.37;67.62
64189;BME280;50493;50.970;10.082;2022-12-10T04:09:15;98340.69;;;1.39;66.46
64189;BME280;50493;50.970;10.082;2022-12-10T04:11:40;98339.88;;;1.24;68.97
64189;BME280;50493;50.970;10.082;2022-12-10T04:14:07;98340.69;;;0.68;68.52
64189;BME280;50493;50.970;10.082;2022-12-10T04:16:52;98342.44;;;1.03;70.15
64189;BME280;50493;50.970;10.082;2022-12-10T04:19:18;98341.56;;;1.14;69.51
64189;BME280;50493;50.970;10.082;2022-12-10T04:21:45;98337.28;;;0.94;70.57
64189;BME280;50493;50.970;10.082;2022-12-10T04:24:31;98341.56;;;1.21;69.62
64189;BME280;50493;50.970;10.082;2022-12-10T04:27:18;98340.72;;;1.33;69.40
64189;BME280;50493;50.970;10.082;2022-12-10T04:29:45;98335.56;;;1.33;68.15
64189;BME280;50493;50.970;10.082;2022-12-10T04:32:10;98340.72;;;1.09;69.27
64189;BME280;50493;50.970;10.082;2022-12-10T04:34:36;98334.69;;;1.19;69.19
64189;BME280;50493;50.970;10.082;2022-12-10T04:37:03;98334.69;;;1.31;68.48
64189;BME280;50493;50.970;10.082;2022-12-10T04:39:30;98338.16;;;0.98;68.21
64189;BME280;50493;50.970;10.082;2022-12-10T04:41:57;98337.28;;;1.34;69.03
64189;BME280;50493;50.970;10.082;2022-12-10T04:44:23;98336.44;;;1.20;68.14
64189;BME280;50493;50.970;10.082;2022-12-10T04:46:49;98333.84;;;1.29;69.09
64189;BME280;50493;50.970;10.082;2022-12-10T04:49:15;98330.41;;;0.75;68.53
64189;BME280;50493;50.970;10.082;2022-12-10T04:51:41;98334.72;;;1.17;69.37
64189;BME280;50493;50.970;10.082;2022-12-10T04:54:07;98332.09;;;1.39;68.69
64189;BME280;50493;50.970;10.082;2022-12-10T04:56:34;98338.09;;;1.50;67.66
64189;BME280;50493;50.970;10.082;2022-12-10T04:59:00;98340.72;;;0.90;67.34
64189;BME280;50493;50.970;10.082;2022-12-10T05:01:26;98340.72;;;1.02;68.88
64189;BME280;50493;50.970;10.082;2022-12-10T05:03:51;98345.84;;;0.81;68.84
64189;BME280;50493;50.970;10.082;2022-12-10T05:06:18;98345.00;;;0.90;67.71
64189;BME280;50493;50.970;10.082;2022-12-10T05:08:44;98348.44;;;0.95;68.82
64189;BME280;50493;50.970;10.082;2022-12-10T05:11:12;98351.00;;;0.90;69.53
64189;BME280;50493;50.970;10.082;2022-12-10T05:13:39;98358.75;;;0.99;69.26
64189;BME280;50493;50.970;10.082;2022-12-10T05:16:07;98358.56;;;0.14;70.17
64189;BME280;50493;50.970;10.082;2022-12-10T05:18:33;98360.44;;;0.71;70.27
64189;BME280;50493;50.970;10.082;2022-12-10T05:20:59;98361.28;;;0.85;68.76
64189;BME280;50493;50.970;10.082;2022-12-10T05:23:24;98373.28;;;0.88;67.77
64189;BME280;50493;50.970;10.082;2022-12-10T05:25:58;98364.75;;;0.95;69.21
64189;BME280;50493;50.970;10.082;2022-12-10T05:28:23;98368.16;;;1.00;69.16
64189;BME280;50493;50.970;10.082;2022-12-10T05:30:50;98369.88;;;1.23;67.99
64189;BME280;50493;50.970;10.082;2022-12-10T05:33:16;98372.47;;;1.32;67.35
64189;BME280;50493;50.970;10.082;2022-12-10T05:35:41;98366.44;;;1.15;68.00
64189;BME280;50493;50.970;10.082;2022-12-10T05:38:07;98370.72;;;1.11;68.44
64189;BME280;50493;50.970;10.082;2022-12-10T05:40:34;98373.31;;;1.10;69.31
64189;BME280;50493;50.970;10.082;2022-12-10T05:42:59;98373.31;;;1.03;69.93
64189;BME280;50493;50.970;10.082;2022-12-10T05:45:24;98373.31;;;1.22;68.21
64189;BME280;50493;50.970;10.082;2022-12-10T05:47:51;98371.59;;;1.33;68.23
64189;BME280;50493;50.970;10.082;2022-12-10T05:50:16;98376.75;;;1.36;68.72
64189;BME280;50493;50.970;10.082;2022-12-10T05:52:42;98376.75;;;1.43;67.05
64189;BME280;50493;50.970;10.082;2022-12-10T05:55:08;98379.31;;;1.43;68.56
64189;BME280;50493;50.970;10.082;2022-12-10T05:57:35;98383.59;;;1.31;68.49
64189;BME280;50493;50.970;10.082;2022-12-10T06:00:00;98387.06;;;1.43;68.43
64189;BME280;50493;50.970;10.082;2022-12-10T06:02:26;98387.00;;;1.61;66.11
64189;BME280;50493;50.970;10.082;2022-12-10T06:04:52;98391.31;;;1.54;64.10
64189;BME280;50493;50.970;10.082;2022-12-10T06:07:18;98399.06;;;1.47;66.24
64189;BME280;50493;50.970;10.082;2022-12-10T06:09:43;98399.06;;;1.59;64.47
64189;BME280;50493;50.970;10.082;2022-12-10T06:12:09;98392.19;;;1.58;66.89
64189;BME280;50493;50.970;10.082;2022-12-10T06:14:34;98396.50;;;1.56;63.15
64189;BME280;50493;50.970;10.082;2022-12-10T06:17:00;98402.50;;;1.49;65.27
64189;BME280;50493;50.970;10.082;2022-12-10T06:19:25;98399.91;;;1.74;66.31
64189;BME280;50493;50.970;10.082;2022-12-10T06:21:52;98406.75;;;1.64;65.40
64189;BME280;50493;50.970;10.082;2022-12-10T06:24:17;98401.59;;;1.71;66.69
64189;BME280;50493;50.970;10.082;2022-12-10T06:26:43;98411.03;;;1.83;66.43
64189;BME280;50493;50.970;10.082;2022-12-10T06:29:08;98402.44;;;1.89;65.72
64189;BME280;50493;50.970;10.082;2022-12-10T06:31:34;98413.59;;;1.94;66.11
64189;BME280;50493;50.970;10.082;2022-12-10T06:33:59;98411.03;;;1.85;62.58
64189;BME280;50493;50.970;10.082;2022-12-10T06:36:25;98412.72;;;1.92;66.28
64189;BME280;50493;50.970;10.082;2022-12-10T06:38:52;98418.81;;;1.54;67.53
64189;BME280;50493;50.970;10.082;2022-12-10T06:41:18;98414.50;;;1.61;66.57
64189;BME280;50493;50.970;10.082;2022-12-10T06:43:45;98417.94;;;1.64;67.23
64189;BME280;50493;50.970;10.082;2022-12-10T06:46:12;98417.91;;;1.86;66.08
64189;BME280;50493;50.970;10.082;2022-12-10T06:48:38;98415.28;;;1.94;64.68
64189;BME280;50493;50.970;10.082;2022-12-10T06:51:04;98423.06;;;1.89;62.37
64189;BME280;50493;50.970;10.082;2022-12-10T06:53:31;98417.91;;;1.84;65.63
64189;BME280;50493;50.970;10.082;2022-12-10T06:55:59;98427.38;;;1.65;66.89
64189;BME280;50493;50.970;10.082;2022-12-10T06:58:26;98425.69;;;1.63;66.70
64189;BME280;50493;50.970;10.082;2022-12-10T07:00:52;98424.81;;;1.28;68.08
64189;BME280;50493;50.970;10.082;2022-12-10T07:03:17;98418.81;;;1.45;68.07
64189;BME280;50493;50.970;10.082;2022-12-10T07:05:43;98426.53;;;1.38;68.39
64189;BME280;50493;50.970;10.082;2022-12-10T07:08:08;98433.41;;;1.58;67.13
64189;BME280;50493;50.970;10.082;2022-12-10T07:10:33;98431.66;;;1.57;66.97
64189;BME280;50493;50.970;10.082;2022-12-10T07:13:00;98432.53;;;1.68;66.85
64189;BME280;50493;50.970;10.082;2022-12-10T07:15:26;98429.94;;;1.64;66.86
64189;BME280;50493;50.970;10.082;2022-12-10T07:17:53;98435.09;;;1.81;66.58
64189;BME280;50493;50.970;10.082;2022-12-10T07:20:18;98441.97;;;1.85;64.03
64189;BME280;50493;50.970;10.082;2022-12-10T07:22:44;98439.38;;;1.93;63.72
64189;BME280;50493;50.970;10.082;2022-12-10T07:25:09;98446.25;;;1.81;62.70
64189;BME280;50493;50.970;10.082;2022-12-10T07:27:35;98455.72;;;1.28;64.10
64189;BME280;50493;50.970;10.082;2022-12-10T07:30:02;98453.97;;;0.99;65.45
64189;BME280;50493;50.970;10.082;2022-12-10T07:32:27;98452.28;;;1.51;65.22
64189;BME280;50493;50.970;10.082;2022-12-10T07:34:53;98450.56;;;1.37;66.75
64189;BME280;50493;50.970;10.082;2022-12-10T07:37:18;98452.28;;;1.17;68.88
64189;BME280;50493;50.970;10.082;2022-12-10T07:39:44;98456.59;;;1.53;66.63
64189;BME280;50493;50.970;10.082;2022-12-10T07:42:09;98456.59;;;1.55;66.67
64189;BME280;50493;50.970;10.082;2022-12-10T07:44:34;98452.28;;;1.54;67.83
64189;BME280;50493;50.970;10.082;2022-12-10T07:47:01;98450.56;;;1.62;66.82
64189;BME280;50493;50.970;10.082;2022-12-10T07:49:28;98455.72;;;1.71;66.78
64189;BME280;50493;50.970;10.082;2022-12-10T07:51:54;98460.84;;;1.84;65.19
64189;BME280;50493;50.970;10.082;2022-12-10T07:54:19;98461.72;;;1.87;65.38
64189;BME280;50493;50.970;10.082;2022-12-10T07:56:45;98466.00;;;1.93;64.24
64189;BME280;50493;50.970;10.082;2022-12-10T07:59:10;98471.19;;;1.56;63.24
64189;BME280;50493;50.970;10.082;2022-12-10T08:01:36;98468.59;;;1.50;65.62
64189;BME280;50493;50.970;10.082;2022-12-10T08:04:03;98471.13;;;1.22;63.68
64189;BME280;50493;50.970;10.082;2022-12-10T08:06:29;98474.56;;;1.18;64.63
64189;BME280;50493;50.970;10.082;2022-12-10T08:08:55;98472.00;;;1.26;63.36
64189;BME280;50493;50.970;10.082;2022-12-10T08:11:23;98469.41;;;1.05;62.78
64189;BME280;50493;50.970;10.082;2022-12-10T08:13:49;98474.56;;;1.15;64.34
64189;BME280;50493;50.970;10.082;2022-12-10T08:16:17;98481.44;;;1.13;64.24
64189;BME280;50493;50.970;10.082;2022-12-10T08:18:43;98483.16;;;1.20;63.64
64189;BME280;50493;50.970;10.082;2022-12-10T08:21:12;98479.75;;;1.21;63.56
64189;BME280;50493;50.970;10.082;2022-12-10T08:23:38;98480.53;;;0.94;67.98
64189;BME280;50493;50.970;10.082;2022-12-10T08:26:04;98483.91;;;0.69;64.17
64189;BME280;50493;50.970;10.082;2022-12-10T08:28:29;98487.38;;;0.90;63.69
64189;BME280;50493;50.970;10.082;2022-12-10T08:30:55;98493.34;;;0.83;65.35
64189;BME280;50493;50.970;10.082;2022-12-10T08:33:20;98488.31;;;1.17;64.86
64189;BME280;50493;50.970;10.082;2022-12-10T08:35:46;98491.63;;;0.71;62.21
64189;BME280;50493;50.970;10.082;2022-12-10T08:38:12;98500.34;;;1.24;64.11
64189;BME280;50493;50.970;10.082;2022-12-10T08:40:39;98499.50;;;1.24;67.03
64189;BME280;50493;50.970;10.082;2022-12-10T08:43:04;98501.22;;;1.46;65.39
64189;BME280;50493;50.970;10.082;2022-12-10T08:45:29;98491.75;;;1.13;61.61
64189;BME280;50493;50.970;10.082;2022-12-10T08:47:55;98498.63;;;1.29;62.95
64189;BME280;50493;50.970;10.082;2022-12-10T08:50:20;98497.59;;;0.65;63.17
64189;BME280;50493;50.970;10.082;2022-12-10T08:52:46;98500.38;;;1.46;65.08
64189;BME280;50493;50.970;10.082;2022-12-10T08:55:13;98502.03;;;1.19;61.29
64189;BME280;50493;50.970;10.082;2022-12-10T08:57:38;98508.94;;;1.48;63.65
64189;BME280;50493;50.970;10.082;2022-12-10T09:00:05;98507.25;;;1.61;61.33
64189;BME280;50493;50.970;10.082;2022-12-10T09:02:31;98510.69;;;1.77;62.79
64189;BME280;50493;50.970;10.082;2022-12-10T09:04:56;98502.94;;;1.94;60.50
64189;BME280;50493;50.970;10.082;2022-12-10T09:07:22;98500.34;;;2.04;59.94
64189;BME280;50493;50.970;10.082;2022-12-10T09:09:47;98514.97;;;2.01;63.87
64189;BME280;50493;50.970;10.082;2022-12-10T09:12:14;98513.22;;;2.29;63.66
64189;BME280;50493;50.970;10.082;2022-12-10T09:14:39;98505.50;;;2.04;63.78
64189;BME280;50493;50.970;10.082;2022-12-10T09:17:07;98508.97;;;1.85;59.69
64189;BME280;50493;50.970;10.082;2022-12-10T09:19:33;98509.81;;;1.85;62.98
64189;BME280;50493;50.970;10.082;2022-12-10T09:21:58;98515.84;;;1.89;61.13
64189;BME280;50493;50.970;10.082;2022-12-10T09:24:24;98520.13;;;1.98;63.74
64189;BME280;50493;50.970;10.082;2022-12-10T09:26:49;98531.28;;;2.20;63.74
64189;BME280;50493;50.970;10.082;2022-12-10T09:29:16;98531.28;;;2.14;64.48
64189;BME280;50493;50.970;10.082;2022-12-10T09:31:42;98526.97;;;2.27;63.71
64189;BME280;50493;50.970;10.082;2022-12-10T09:34:08;98517.47;;;2.39;63.52
64189;BME280;50493;50.970;10.082;2022-12-10T09:36:33;98517.41;;;2.58;61.05
64189;BME280;50493;50.970;10.082;2022-12-10T09:38:59;98517.41;;;2.58;62.20
64189;BME280;50493;50.970;10.082;2022-12-10T09:41:42;98518.31;;;2.46;61.49
64189;BME280;50493;50.970;10.082;2022-12-10T09:44:21;98521.66;;;2.73;60.99
64189;BME280;50493;50.970;10.082;2022-12-10T09:46:55;98519.13;;;2.62;61.91
64189;BME280;50493;50.970;10.082;2022-12-10T09:49:29;98506.19;;;2.67;62.04
64189;BME280;50493;50.970;10.082;2022-12-10T09:52:00;98508.91;;;2.22;64.16
64189;BME280;50493;50.970;10.082;2022-12-10T09:54:30;98503.53;;;2.87;62.24
64189;BME280;50493;50.970;10.082;2022-12-10T09:56:57;98499.22;;;2.98;55.84
64189;BME280;50493;50.970;10.082;2022-12-10T09:59:29;98499.25;;;2.81;55.94
64189;BME280;50493;50.970;10.082;2022-12-10T10:02:02;98500.16;;;2.69;56.75
64189;BME280;50493;50.970;10.082;2022-12-10T10:04:28;98505.47;;;2.32;58.50
64189;BME280;50493;50.970;10.082;2022-12-10T10:06:54;98498.41;;;2.81;60.25
64189;BME280;50493;50.970;10.082;2022-12-10T10:09:20;98496.94;;;1.81;57.50
64189;BME280;50493;50.970;10.082;2022-12-10T10:11:46;98496.84;;;2.43;57.48
64189;BME280;50493;50.970;10.082;2022-12-10T10:14:15;98495.13;;;2.43;59.65
64189;BME280;50493;50.970;10.082;2022-12-10T10:16:47;98494.25;;;2.39;59.32
64189;BME280;50493;50.970;10.082;2022-12-10T10:19:16;98504.59;;;2.27;63.04
64189;BME280;50493;50.970;10.082;2022-12-10T10:21:45;98498.50;;;2.62;63.07
64189;BME280;50493;50.970;10.082;2022-12-10T10:24:13;98505.47;;;2.29;57.65
64189;BME280;50493;50.970;10.082;2022-12-10T10:26:39;98509.66;;;0.85;61.28
64189;BME280;50493;50.970;10.082;2022-12-10T10:29:06;98516.25;;;0.26;65.83
64189;BME280;50493;50.970;10.082;2022-12-10T10:31:35;98516.50;;;-0.54;67.04
64189;BME280;50493;50.970;10.082;2022-12-10T10:34:06;98506.84;;;0.29;66.11
64189;BME280;50493;50.970;10.082;2022-12-10T10:36:37;98508.81;;;0.86;63.14
64189;BME280;50493;50.970;10.082;2022-12-10T10:39:08;98515.72;;;1.04;62.77
64189;BME280;50493;50.970;10.082;2022-12-10T10:41:35;98509.56;;;0.59;63.49
64189;BME280;50493;50.970;10.082;2022-12-10T10:44:02;98515.63;;;0.65;64.39
64189;BME280;50493;50.970;10.082;2022-12-10T10:46:29;98510.50;;;0.78;64.06
64189;BME280;50493;50.970;10.082;2022-12-10T10:49:15;98517.59;;;-0.24;66.56
64189;BME280;50493;50.970;10.082;2022-12-10T10:51:44;98505.19;;;0.41;65.32
64189;BME280;50493;50.970;10.082;2022-12-10T10:54:11;98503.50;;;0.46;64.20
64189;BME280;50493;50.970;10.082;2022-12-10T10:56:40;98511.84;;;0.06;64.69
64189;BME280;50493;50.970;10.082;2022-12-10T10:59:27;98519.97;;;0.88;62.65
64189;BME280;50493;50.970;10.082;2022-12-10T11:01:53;98519.09;;;0.83;65.06
64189;BME280;50493;50.970;10.082;2022-12-10T11:04:23;98517.84;;;0.05;62.04
64189;BME280;50493;50.970;10.082;2022-12-10T11:06:52;98507.81;;;0.48;64.59
64189;BME280;50493;50.970;10.082;2022-12-10T11:09:21;98518.75;;;0.15;64.47
64189;BME280;50493;50.970;10.082;2022-12-10T11:11:50;98510.56;;;0.96;63.39
64189;BME280;50493;50.970;10.082;2022-12-10T11:14:24;98507.06;;;0.69;60.99
64189;BME280;50493;50.970;10.082;2022-12-10T11:16:50;98505.41;;;0.96;62.16
64189;BME280;50493;50.970;10.082;2022-12-10T11:19:22;98511.50;;;1.29;66.48
64189;BME280;50493;50.970;10.082;2022-12-10T11:21:48;98511.31;;;0.70;58.22
64189;BME280;50493;50.970;10.082;2022-12-10T11:24:18;98511.09;;;0.26;61.87
64189;BME280;50493;50.970;10.082;2022-12-10T11:26:53;98513.59;;;0.15;60.97
64189;BME280;50493;50.970;10.082;2022-12-10T11:29:37;98509.59;;;0.63;61.04
64189;BME280;50493;50.970;10.082;2022-12-10T11:32:16;98517.44;;;0.94;62.79
64189;BME280;50493;50.970;10.082;2022-12-10T11:34:57;98514.09;;;1.59;62.37
64189;BME280;50493;50.970;10.082;2022-12-10T11:37:31;98518.34;;;1.15;65.96
64189;BME280;50493;50.970;10.082;2022-12-10T11:40:06;98519.25;;;1.48;56.81
64189;BME280;50493;50.970;10.082;2022-12-10T11:42:45;98520.97;;;1.46;57.17
64189;BME280;50493;50.970;10.082;2022-12-10T11:45:20;98522.72;;;1.71;66.38
64189;BME280;50493;50.970;10.082;2022-12-10T11:48:02;98514.97;;;1.95;58.40
64189;BME280;50493;50.970;10.082;2022-12-10T11:50:38;98515.00;;;1.78;61.68
64189;BME280;50493;50.970;10.082;2022-12-10T11:53:19;98517.47;;;1.19;60.25
64189;BME280;50493;50.970;10.082;2022-12-10T11:56:00;98517.38;;;0.80;59.25
64189;BME280;50493;50.970;10.082;2022-12-10T11:58:46;98527.00;;;1.55;66.29
64189;BME280;50493;50.970;10.082;2022-12-10T12:01:21;98516.72;;;1.71;59.17
64189;BME280;50493;50.970;10.082;2022-12-10T12:03:54;98520.97;;;1.70;58.23
64189;BME280;50493;50.970;10.082;2022-12-10T12:06:39;98514.09;;;2.10;62.03
64189;BME280;50493;50.970;10.082;2022-12-10T12:09:15;98524.34;;;1.08;58.12
64189;BME280;50493;50.970;10.082;2022-12-10T12:11:59;98529.28;;;0.57;64.60
64189;BME280;50493;50.970;10.082;2022-12-10T12:14:31;98522.50;;;0.79;59.88
64189;BME280;50493;50.970;10.082;2022-12-10T12:17:05;98527.97;;;-0.15;61.28
64189;BME280;50493;50.970;10.082;2022-12-10T12:19:37;98525.25;;;1.27;59.14
64189;BME280;50493;50.970;10.082;2022-12-10T12:22:21;98526.03;;;1.02;58.27
64189;BME280;50493;50.970;10.082;2022-12-10T12:24:48;98519.28;;;1.76;56.75
64189;BME280;50493;50.970;10.082;2022-12-10T12:27:23;98522.41;;;0.54;60.64
64189;BME280;50493;50.970;10.082;2022-12-10T12:29:58;98527.53;;;0.48;60.27
64189;BME280;50493;50.970;10.082;2022-12-10T12:32:29;98534.00;;;-0.08;61.86
64189;BME280;50493;50.970;10.082;2022-12-10T12:34:59;98532.63;;;0.42;61.75
64189;BME280;50493;50.970;10.082;2022-12-10T12:37:34;98521.75;;;1.06;58.23
64189;BME280;50493;50.970;10.082;2022-12-10T12:40:04;98525.91;;;0.68;59.67
64189;BME280;50493;50.970;10.082;2022-12-10T12:42:38;98519.81;;;0.48;60.22
64189;BME280;50493;50.970;10.082;2022-12-10T12:45:12;98521.72;;;0.95;64.92
64189;BME280;50493;50.970;10.082;2022-12-10T12:47:41;98532.13;;;1.40;61.00
64189;BME280;50493;50.970;10.082;2022-12-10T12:50:22;98529.59;;;1.60;60.03
64189;BME280;50493;50.970;10.082;2022-12-10T12:52:53;98522.69;;;1.84;58.71
64189;BME280;50493;50.970;10.082;2022-12-10T12:55:23;98527.84;;;1.65;58.81
64189;BME280;50493;50.970;10.082;2022-12-10T12:57:56;98528.72;;;1.95;60.22
64189;BME280;50493;50.970;10.082;2022-12-10T13:00:24;98532.06;;;1.12;59.08
64189;BME280;50493;50.970;10.082;2022-12-10T13:02:55;98539.84;;;1.29;58.70
64189;BME280;50493;50.970;10.082;2022-12-10T13:05:26;98534.75;;;1.60;58.46
64189;BME280;50493;50.970;10.082;2022-12-10T13:08:21;98532.16;;;1.60;60.05
64189;BME280;50493;50.970;10.082;2022-12-10T13:10:51;98533.00;;;1.96;62.50